createdAt,value
2022-10-22T00:00:33.117Z,1003.87
2022-10-22T00:01:33.121Z,1003.90
2022-10-22T00:02:33.185Z,1003.88
2022-10-22T00:03:33.106Z,1003.86
2022-10-22T00:04:35.398Z,1003.90
2022-10-22T00:05:33.068Z,1003.92
2022-10-22T00:06:33.072Z,1003.93
2022-10-22T00:07:33.044Z,1003.91
2022-10-22T00:08:33.109Z,1003.93
2022-10-22T00:09:33.068Z,1003.96
2022-10-22T00:10:33.038Z,1003.87
2022-10-22T00:11:33.014Z,1003.87
2022-10-22T00:12:32.982Z,1003.88
2022-10-22T00:13:32.992Z,1003.87
2022-10-22T00:14:32.973Z,1003.87
2022-10-22T00:15:32.982Z,1003.86
2022-10-22T00:16:32.976Z,1003.87
2022-10-22T00:17:32.955Z,1003.79
2022-10-22T00:18:32.928Z,1003.83
2022-10-22T00:19:32.960Z,1003.76
2022-10-22T00:20:32.917Z,1003.78
2022-10-22T00:21:32.902Z,1003.80
2022-10-22T00:22:32.901Z,1003.68
2022-10-22T00:23:32.882Z,1003.71
2022-10-22T00:24:32.851Z,1003.72
2022-10-22T00:25:32.856Z,1003.67
2022-10-22T00:26:32.844Z,1003.71
2022-10-22T00:27:32.837Z,1003.71
2022-10-22T00:28:32.830Z,1003.73
2022-10-22T00:29:32.855Z,1003.75
2022-10-22T00:30:32.786Z,1003.75
2022-10-22T00:31:32.798Z,1003.73
2022-10-22T00:32:32.777Z,1003.69
2022-10-22T00:33:32.756Z,1003.70
2022-10-22T00:34:32.744Z,1003.67
2022-10-22T00:35:32.785Z,1003.65
2022-10-22T00:36:32.717Z,1003.66
2022-10-22T00:37:32.713Z,1003.66
2022-10-22T00:38:32.740Z,1003.69
2022-10-22T00:39:32.684Z,1003.75
2022-10-22T00:40:32.721Z,1003.78
2022-10-22T00:41:32.664Z,1003.79
2022-10-22T00:42:32.710Z,1003.80
2022-10-22T00:43:32.668Z,1003.81
2022-10-22T00:44:32.635Z,1003.79
2022-10-22T00:45:32.639Z,1003.80
2022-10-22T00:46:39.135Z,1003.68
2022-10-22T00:47:32.605Z,1003.65
2022-10-22T00:48:32.599Z,1003.60
2022-10-22T00:49:32.605Z,1003.60
2022-10-22T00:50:32.582Z,1003.57
2022-10-22T00:51:32.589Z,1003.52
2022-10-22T00:52:32.554Z,1003.56
2022-10-22T00:53:32.543Z,1003.59
2022-10-22T00:54:32.568Z,1003.64
2022-10-22T00:55:32.535Z,1003.70
2022-10-22T00:56:32.522Z,1003.69
2022-10-22T00:57:32.504Z,1003.72
2022-10-22T00:58:32.523Z,1003.65
2022-10-22T00:59:32.480Z,1003.61
2022-10-22T01:00:32.532Z,1003.60
2022-10-22T01:01:32.473Z,1003.59
2022-10-22T01:02:32.440Z,1003.59
2022-10-22T01:03:32.422Z,1003.63
2022-10-22T01:04:32.421Z,1003.60
2022-10-22T01:05:32.413Z,1003.58
2022-10-22T01:06:32.413Z,1003.58
2022-10-22T01:07:32.372Z,1003.55
2022-10-22T01:08:32.394Z,1003.51
2022-10-22T01:09:32.360Z,1003.51
2022-10-22T01:10:32.398Z,1003.50
2022-10-22T01:11:32.448Z,1003.50
2022-10-22T01:12:32.328Z,1003.53
2022-10-22T01:13:32.305Z,1003.54
2022-10-22T01:14:32.288Z,1003.45
2022-10-22T01:15:32.312Z,1003.48
2022-10-22T01:16:32.283Z,1003.47
2022-10-22T01:17:32.278Z,1003.45
2022-10-22T01:18:32.302Z,1003.47
2022-10-22T01:19:32.268Z,1003.50
2022-10-22T01:20:32.298Z,1003.48
2022-10-22T01:21:32.232Z,1003.47
2022-10-22T01:22:32.227Z,1003.47
2022-10-22T01:23:32.198Z,1003.46
2022-10-22T01:24:32.197Z,1003.44
2022-10-22T01:25:32.235Z,1003.43
2022-10-22T01:26:32.182Z,1003.44
2022-10-22T01:27:32.157Z,1003.42
2022-10-22T01:28:32.186Z,1003.41
2022-10-22T01:29:33.024Z,1003.45
2022-10-22T01:30:33.021Z,1003.42
2022-10-22T01:31:32.103Z,1003.50
2022-10-22T01:32:32.153Z,1003.42
2022-10-22T01:33:32.084Z,1003.51
2022-10-22T01:34:32.081Z,1003.51
2022-10-22T01:36:32.051Z,1003.50
2022-10-22T01:37:32.080Z,1003.47
2022-10-22T01:38:32.038Z,1003.47
2022-10-22T01:39:32.019Z,1003.50
2022-10-22T01:40:32.015Z,1003.50
2022-10-22T01:41:32.012Z,1003.50
2022-10-22T01:42:32.035Z,1003.49
2022-10-22T01:43:31.974Z,1003.54
2022-10-22T01:44:32.031Z,1003.52
2022-10-22T01:45:31.984Z,1003.58
2022-10-22T01:46:31.957Z,1003.58
2022-10-22T01:47:31.930Z,1003.60
2022-10-22T01:48:31.907Z,1003.55
2022-10-22T01:49:31.913Z,1003.58
2022-10-22T01:50:31.928Z,1003.53
2022-10-22T01:51:31.887Z,1003.61
2022-10-22T01:52:31.868Z,1003.59
2022-10-22T01:53:31.915Z,1003.62
2022-10-22T01:54:31.841Z,1003.65
2022-10-22T01:55:31.865Z,1003.64
2022-10-22T01:56:31.836Z,1003.63
2022-10-22T01:57:31.819Z,1003.68
2022-10-22T01:58:31.801Z,1003.65
2022-10-22T01:59:31.808Z,1003.63
2022-10-22T02:00:31.811Z,1003.64
2022-10-22T02:01:31.789Z,1003.63
2022-10-22T02:02:31.787Z,1003.66
2022-10-22T02:03:31.754Z,1003.62
2022-10-22T02:04:31.746Z,1003.65
2022-10-22T02:05:31.745Z,1003.67
2022-10-22T02:06:31.710Z,1003.68
2022-10-22T02:07:31.720Z,1003.65
2022-10-22T02:08:31.696Z,1003.62
2022-10-22T02:09:31.681Z,1003.62
2022-10-22T02:10:31.699Z,1003.66
2022-10-22T02:11:31.667Z,1003.66
2022-10-22T02:12:31.658Z,1003.61
2022-10-22T02:13:31.665Z,1003.65
2022-10-22T02:14:31.622Z,1003.61
2022-10-22T02:15:31.621Z,1003.62
2022-10-22T02:16:31.600Z,1003.63
2022-10-22T02:17:31.590Z,1003.60
2022-10-22T02:18:31.576Z,1003.56
2022-10-22T02:19:31.559Z,1003.55
2022-10-22T02:20:31.609Z,1003.60
2022-10-22T02:21:31.561Z,1003.62
2022-10-22T02:22:31.557Z,1003.61
2022-10-22T02:23:31.546Z,1003.61
2022-10-22T02:24:31.504Z,1003.60
2022-10-22T02:25:31.504Z,1003.60
2022-10-22T02:26:38.035Z,1003.56
2022-10-22T02:27:31.509Z,1003.58
2022-10-22T02:28:31.482Z,1003.55
2022-10-22T02:29:31.472Z,1003.54
2022-10-22T02:30:31.443Z,1003.57
2022-10-22T02:31:31.441Z,1003.54
2022-10-22T02:32:31.429Z,1003.58
2022-10-22T02:33:31.415Z,1003.59
2022-10-22T02:34:31.417Z,1003.56
2022-10-22T02:35:31.385Z,1003.58
2022-10-22T02:36:31.365Z,1003.59
2022-10-22T02:37:31.374Z,1003.57
2022-10-22T02:38:31.351Z,1003.59
2022-10-22T02:39:31.368Z,1003.57
2022-10-22T02:40:31.334Z,1003.61
2022-10-22T02:41:31.310Z,1003.57
2022-10-22T02:42:31.299Z,1003.52
2022-10-22T02:43:31.293Z,1003.52
2022-10-22T02:44:31.333Z,1003.51
2022-10-22T02:45:31.274Z,1003.53
2022-10-22T02:46:37.838Z,1003.57
2022-10-22T02:47:31.257Z,1003.60
2022-10-22T02:48:31.254Z,1003.55
2022-10-22T02:49:31.232Z,1003.60
2022-10-22T02:50:31.221Z,1003.66
2022-10-22T02:51:31.211Z,1003.62
2022-10-22T02:52:31.189Z,1003.63
2022-10-22T02:53:31.200Z,1003.61
2022-10-22T02:54:31.177Z,1003.61
2022-10-22T02:55:31.161Z,1003.62
2022-10-22T02:56:31.200Z,1003.56
2022-10-22T02:57:31.132Z,1003.63
2022-10-22T02:58:31.128Z,1003.63
2022-10-22T02:59:31.144Z,1003.63
2022-10-22T03:00:31.149Z,1003.68
2022-10-22T03:01:31.092Z,1003.65
2022-10-22T03:02:31.077Z,1003.68
2022-10-22T03:03:31.083Z,1003.66
2022-10-22T03:04:31.056Z,1003.69
2022-10-22T03:05:31.049Z,1003.69
2022-10-22T03:06:31.077Z,1003.70
2022-10-22T03:07:31.036Z,1003.72
2022-10-22T03:08:31.113Z,1003.71
2022-10-22T03:09:30.995Z,1003.73
2022-10-22T03:10:30.986Z,1003.76
2022-10-22T03:11:30.988Z,1003.83
2022-10-22T03:12:30.983Z,1003.83
2022-10-22T03:13:30.975Z,1003.88
2022-10-22T03:14:30.955Z,1003.80
2022-10-22T03:15:31.006Z,1003.74
2022-10-22T03:16:37.480Z,1003.80
2022-10-22T03:17:30.918Z,1003.78
2022-10-22T03:18:30.905Z,1003.81
2022-10-22T03:19:30.884Z,1003.85
2022-10-22T03:20:30.877Z,1003.88
2022-10-22T03:21:30.877Z,1003.89
2022-10-22T03:22:30.863Z,1003.92
2022-10-22T03:23:30.861Z,1003.93
2022-10-22T03:24:30.850Z,1003.87
2022-10-22T03:25:30.817Z,1003.94
2022-10-22T03:26:30.827Z,1003.96
2022-10-22T03:27:30.815Z,1003.91
2022-10-22T03:28:30.784Z,1003.89
2022-10-22T03:29:30.787Z,1003.93
2022-10-22T03:30:30.785Z,1003.91
2022-10-22T03:31:30.763Z,1003.91
2022-10-22T03:32:30.838Z,1003.98
2022-10-22T03:33:30.755Z,1003.98
2022-10-22T03:34:30.739Z,1004.00
2022-10-22T03:35:30.715Z,1003.99
2022-10-22T03:36:30.708Z,1004.02
2022-10-22T03:37:30.697Z,1004.01
2022-10-22T03:38:30.686Z,1004.06
2022-10-22T03:39:30.683Z,1004.10
2022-10-22T03:40:30.666Z,1004.09
2022-10-22T03:41:30.684Z,1004.09
2022-10-22T03:42:30.645Z,1004.08
2022-10-22T03:43:30.619Z,1004.07
2022-10-22T03:44:30.624Z,1004.05
2022-10-22T03:45:30.661Z,1004.06
2022-10-22T03:46:30.664Z,1004.08
2022-10-22T03:47:30.582Z,1004.08
2022-10-22T03:48:30.638Z,1004.09
2022-10-22T03:49:30.604Z,1004.08
2022-10-22T03:50:30.549Z,1004.10
2022-10-22T03:51:30.531Z,1004.07
2022-10-22T03:52:30.527Z,1004.11
2022-10-22T03:53:30.529Z,1004.06
2022-10-22T03:54:30.528Z,1004.05
2022-10-22T03:55:30.495Z,1004.09
2022-10-22T03:56:37.065Z,1004.11
2022-10-22T03:57:30.511Z,1004.07
2022-10-22T03:58:30.467Z,1004.14
2022-10-22T03:59:30.445Z,1004.09
2022-10-22T04:00:30.445Z,1004.16
2022-10-22T04:01:30.493Z,1004.16
2022-10-22T04:02:30.415Z,1004.22
2022-10-22T04:03:30.439Z,1004.20
2022-10-22T04:04:30.399Z,1004.12
2022-10-22T04:05:30.392Z,1004.13
2022-10-22T04:06:30.395Z,1004.18
2022-10-22T04:07:30.382Z,1004.16
2022-10-22T04:08:30.388Z,1004.13
2022-10-22T04:09:30.328Z,1004.17
2022-10-22T04:10:30.333Z,1004.26
2022-10-22T04:11:30.316Z,1004.21
2022-10-22T04:12:30.290Z,1004.27
2022-10-22T04:13:30.365Z,1004.22
2022-10-22T04:14:30.302Z,1004.28
2022-10-22T04:15:30.260Z,1004.26
2022-10-22T04:16:36.851Z,1004.26
2022-10-22T04:17:30.278Z,1004.26
2022-10-22T04:18:30.246Z,1004.25
2022-10-22T04:19:30.224Z,1004.28
2022-10-22T04:20:30.209Z,1004.28
2022-10-22T04:21:30.227Z,1004.27
2022-10-22T04:22:30.194Z,1004.35
2022-10-22T04:23:30.232Z,1004.37
2022-10-22T04:24:30.179Z,1004.44
2022-10-22T04:25:30.156Z,1004.39
2022-10-22T04:26:30.166Z,1004.41
2022-10-22T04:27:30.164Z,1004.44
2022-10-22T04:28:30.167Z,1004.44
2022-10-22T04:29:30.120Z,1004.46
2022-10-22T04:30:30.105Z,1004.41
2022-10-22T04:31:30.085Z,1004.46
2022-10-22T04:32:30.088Z,1004.47
2022-10-22T04:33:30.063Z,1004.49
2022-10-22T04:34:30.054Z,1004.46
2022-10-22T04:35:30.073Z,1004.52
2022-10-22T04:36:30.082Z,1004.47
2022-10-22T04:37:30.040Z,1004.50
2022-10-22T04:38:30.023Z,1004.51
2022-10-22T04:39:30.027Z,1004.49
2022-10-22T04:40:30.022Z,1004.47
2022-10-22T04:41:29.979Z,1004.45
2022-10-22T04:42:30.036Z,1004.47
2022-10-22T04:43:29.985Z,1004.49
2022-10-22T04:44:29.954Z,1004.52
2022-10-22T04:45:29.935Z,1004.54
2022-10-22T04:46:29.921Z,1004.53
2022-10-22T04:47:29.963Z,1004.53
2022-10-22T04:48:29.926Z,1004.49
2022-10-22T04:49:29.893Z,1004.52
2022-10-22T04:50:29.904Z,1004.54
2022-10-22T04:51:29.857Z,1004.56
2022-10-22T04:52:29.848Z,1004.54
2022-10-22T04:53:29.853Z,1004.52
2022-10-22T04:54:32.288Z,1004.48
2022-10-22T04:56:29.819Z,1004.55
2022-10-22T04:57:29.788Z,1004.52
2022-10-22T04:58:29.801Z,1004.57
2022-10-22T04:59:29.798Z,1004.52
2022-10-22T05:00:29.821Z,1004.58
2022-10-22T05:01:29.859Z,1004.60
2022-10-22T05:02:29.773Z,1004.59
2022-10-22T05:03:29.729Z,1004.61
2022-10-22T05:04:29.752Z,1004.61
2022-10-22T05:05:29.717Z,1004.64
2022-10-22T05:06:29.727Z,1004.69
2022-10-22T05:07:29.734Z,1004.70
2022-10-22T05:08:29.696Z,1004.71
2022-10-22T05:09:29.692Z,1004.69
2022-10-22T05:10:29.672Z,1004.69
2022-10-22T05:11:29.653Z,1004.68
2022-10-22T05:12:29.668Z,1004.66
2022-10-22T05:13:29.630Z,1004.68
2022-10-22T05:14:29.622Z,1004.67
2022-10-22T05:15:29.589Z,1004.69
2022-10-22T05:16:29.634Z,1004.68
2022-10-22T05:17:29.619Z,1004.69
2022-10-22T05:18:29.609Z,1004.67
2022-10-22T05:19:29.608Z,1004.70
2022-10-22T05:20:29.544Z,1004.71
2022-10-22T05:21:29.551Z,1004.74
2022-10-22T05:22:29.526Z,1004.74
2022-10-22T05:23:29.542Z,1004.71
2022-10-22T05:24:29.516Z,1004.72
2022-10-22T05:25:29.501Z,1004.77
2022-10-22T05:26:29.535Z,1004.75
2022-10-22T05:27:29.492Z,1004.84
2022-10-22T05:28:29.459Z,1004.81
2022-10-22T05:29:29.455Z,1004.79
2022-10-22T05:30:29.457Z,1004.80
2022-10-22T05:31:29.434Z,1004.83
2022-10-22T05:32:29.403Z,1004.82
2022-10-22T05:33:29.433Z,1004.83
2022-10-22T05:34:29.429Z,1004.82
2022-10-22T05:35:29.419Z,1004.84
2022-10-22T05:36:29.370Z,1004.82
2022-10-22T05:37:29.410Z,1004.82
2022-10-22T05:38:29.376Z,1004.83
2022-10-22T05:39:29.352Z,1004.81
2022-10-22T05:40:31.066Z,1004.82
2022-10-22T05:41:29.325Z,1004.81
2022-10-22T05:42:29.331Z,1004.85
2022-10-22T05:43:29.287Z,1004.84
2022-10-22T05:44:29.462Z,1004.86
2022-10-22T05:45:29.271Z,1004.90
2022-10-22T05:46:35.783Z,1004.91
2022-10-22T05:47:29.280Z,1004.95
2022-10-22T05:48:29.249Z,1004.94
2022-10-22T05:49:29.276Z,1005.00
2022-10-22T05:50:29.205Z,1005.02
2022-10-22T05:51:29.245Z,1004.98
2022-10-22T05:52:29.197Z,1005.02
2022-10-22T05:53:29.269Z,1005.06
2022-10-22T05:54:29.181Z,1005.11
2022-10-22T05:55:29.166Z,1005.14
2022-10-22T05:56:29.148Z,1005.16
2022-10-22T05:57:29.129Z,1005.17
2022-10-22T05:58:29.140Z,1005.24
2022-10-22T05:59:29.133Z,1005.23
2022-10-22T06:00:29.211Z,1005.26
2022-10-22T06:01:29.330Z,1005.28
2022-10-22T06:02:29.180Z,1005.34
2022-10-22T06:03:29.102Z,1005.39
2022-10-22T06:04:29.074Z,1005.39
2022-10-22T06:05:29.081Z,1005.43
2022-10-22T06:06:29.066Z,1005.46
2022-10-22T06:07:29.035Z,1005.45
2022-10-22T06:08:29.007Z,1005.47
2022-10-22T06:09:29.052Z,1005.49
2022-10-22T06:10:29.087Z,1005.51
2022-10-22T06:11:32.489Z,1005.49
2022-10-22T06:12:29.001Z,1005.52
2022-10-22T06:13:28.977Z,1005.57
2022-10-22T06:14:28.961Z,1005.51
2022-10-22T06:15:28.967Z,1005.54
2022-10-22T06:16:28.949Z,1005.56
2022-10-22T06:17:28.928Z,1005.55
2022-10-22T06:18:28.904Z,1005.57
2022-10-22T06:19:28.919Z,1005.59
2022-10-22T06:20:28.935Z,1005.61
2022-10-22T06:21:28.881Z,1005.60
2022-10-22T06:22:28.875Z,1005.60
2022-10-22T06:23:28.864Z,1005.63
2022-10-22T06:24:28.827Z,1005.68
2022-10-22T06:25:28.848Z,1005.69
2022-10-22T06:26:28.825Z,1005.77
2022-10-22T06:27:28.832Z,1005.76
2022-10-22T06:28:28.800Z,1005.76
2022-10-22T06:29:28.792Z,1005.74
2022-10-22T06:30:28.791Z,1005.75
2022-10-22T06:31:28.767Z,1005.82
2022-10-22T06:32:28.739Z,1005.79
2022-10-22T06:33:28.747Z,1005.82
2022-10-22T06:34:28.749Z,1005.83
2022-10-22T06:35:28.713Z,1005.84
2022-10-22T06:36:28.755Z,1005.86
2022-10-22T06:37:28.692Z,1005.86
2022-10-22T06:38:28.674Z,1005.93
2022-10-22T06:39:28.676Z,1005.84
2022-10-22T06:40:28.656Z,1005.83
2022-10-22T06:41:29.610Z,1005.90
2022-10-22T06:42:28.643Z,1005.90
2022-10-22T06:43:28.636Z,1005.96
2022-10-22T06:44:28.630Z,1005.97
2022-10-22T06:45:28.608Z,1005.93
2022-10-22T06:46:28.657Z,1005.96
2022-10-22T06:47:28.593Z,1005.96
2022-10-22T06:48:28.572Z,1005.90
2022-10-22T06:49:28.562Z,1005.94
2022-10-22T06:50:28.576Z,1006.00
2022-10-22T06:51:28.593Z,1005.99
2022-10-22T06:52:28.518Z,1006.02
2022-10-22T06:53:28.517Z,1006.08
2022-10-22T06:54:28.518Z,1006.08
2022-10-22T06:55:28.497Z,1006.10
2022-10-22T06:56:28.477Z,1006.13
2022-10-22T06:57:28.461Z,1006.12
2022-10-22T06:58:28.452Z,1006.17
2022-10-22T06:59:28.449Z,1006.15
2022-10-22T07:00:28.474Z,1006.21
2022-10-22T07:01:28.469Z,1006.24
2022-10-22T07:02:28.417Z,1006.21
2022-10-22T07:03:28.411Z,1006.19
2022-10-22T07:04:28.436Z,1006.28
2022-10-22T07:05:28.377Z,1006.24
2022-10-22T07:06:28.364Z,1006.26
2022-10-22T07:07:28.349Z,1006.22
2022-10-22T07:08:28.357Z,1006.26
2022-10-22T07:09:28.350Z,1006.24
2022-10-22T07:10:30.020Z,1006.25
2022-10-22T07:11:28.307Z,1006.25
2022-10-22T07:12:28.299Z,1006.21
2022-10-22T07:13:28.291Z,1006.16
2022-10-22T07:14:28.283Z,1006.22
2022-10-22T07:15:28.290Z,1006.26
2022-10-22T07:16:31.986Z,1006.31
2022-10-22T07:17:28.261Z,1006.24
2022-10-22T07:18:28.253Z,1006.28
2022-10-22T07:19:28.227Z,1006.31
2022-10-22T07:20:28.238Z,1006.30
2022-10-22T07:21:28.235Z,1006.33
2022-10-22T07:22:28.237Z,1006.30
2022-10-22T07:23:28.186Z,1006.35
2022-10-22T07:24:28.174Z,1006.34
2022-10-22T07:25:28.199Z,1006.35
2022-10-22T07:26:28.135Z,1006.35
2022-10-22T07:27:28.135Z,1006.38
2022-10-22T07:28:28.119Z,1006.39
2022-10-22T07:29:28.112Z,1006.36
2022-10-22T07:30:28.104Z,1006.39
2022-10-22T07:31:28.093Z,1006.46
2022-10-22T07:32:28.107Z,1006.45
2022-10-22T07:33:28.083Z,1006.48
2022-10-22T07:34:28.083Z,1006.51
2022-10-22T07:35:28.042Z,1006.51
2022-10-22T07:36:28.042Z,1006.53
2022-10-22T07:37:28.037Z,1006.57
2022-10-22T07:38:28.020Z,1006.57
2022-10-22T07:39:27.998Z,1006.64
2022-10-22T07:40:27.995Z,1006.63
2022-10-22T07:41:28.000Z,1006.67
2022-10-22T07:43:27.978Z,1006.70
2022-10-22T07:44:27.938Z,1006.66
2022-10-22T07:45:27.960Z,1006.69
2022-10-22T07:46:27.917Z,1006.69
2022-10-22T07:47:27.902Z,1006.73
2022-10-22T07:48:27.918Z,1006.74
2022-10-22T07:49:27.880Z,1006.74
2022-10-22T07:50:27.880Z,1006.75
2022-10-22T07:51:27.875Z,1006.76
2022-10-22T07:52:27.862Z,1006.77
2022-10-22T07:53:27.892Z,1006.81
2022-10-22T07:54:27.835Z,1006.78
2022-10-22T07:55:27.850Z,1006.84
2022-10-22T07:56:34.354Z,1006.87
2022-10-22T07:57:27.802Z,1006.87
2022-10-22T07:58:27.789Z,1006.87
2022-10-22T07:59:27.778Z,1006.86
2022-10-22T08:00:27.784Z,1006.91
2022-10-22T08:01:27.783Z,1006.92
2022-10-22T08:02:27.755Z,1006.87
2022-10-22T08:03:27.730Z,1006.92
2022-10-22T08:04:27.733Z,1006.92
2022-10-22T08:05:27.712Z,1006.93
2022-10-22T08:06:27.708Z,1007.02
2022-10-22T08:07:27.687Z,1007.01
2022-10-22T08:08:30.463Z,1006.97
2022-10-22T08:09:27.670Z,1006.98
2022-10-22T08:10:27.656Z,1007.01
2022-10-22T08:11:27.645Z,1006.98
2022-10-22T08:12:27.634Z,1007.00
2022-10-22T08:13:27.645Z,1006.97
2022-10-22T08:14:27.636Z,1006.99
2022-10-22T08:15:27.827Z,1006.99
2022-10-22T08:16:27.600Z,1007.02
2022-10-22T08:17:27.568Z,1007.03
2022-10-22T08:18:27.571Z,1007.07
2022-10-22T08:19:27.557Z,1007.09
2022-10-22T08:20:27.557Z,1007.07
2022-10-22T08:21:27.541Z,1007.10
2022-10-22T08:22:27.532Z,1007.07
2022-10-22T08:23:28.680Z,1007.07
2022-10-22T08:24:27.535Z,1007.07
2022-10-22T08:25:27.491Z,1007.10
2022-10-22T08:26:27.470Z,1007.15
2022-10-22T08:27:27.471Z,1007.11
2022-10-22T08:28:27.459Z,1007.16
2022-10-22T08:29:27.439Z,1007.14
2022-10-22T08:30:27.443Z,1007.13
2022-10-22T08:31:27.426Z,1007.17
2022-10-22T08:33:27.404Z,1007.14
2022-10-22T08:34:27.385Z,1007.17
2022-10-22T08:35:27.384Z,1007.15
2022-10-22T08:36:27.400Z,1007.18
2022-10-22T08:37:27.355Z,1007.08
2022-10-22T08:38:27.337Z,1007.11
2022-10-22T08:39:27.335Z,1007.10
2022-10-22T08:40:27.315Z,1007.10
